createdAt,value
2018-01-30T09:59:33.484Z,63.87
2018-01-30T10:02:03.230Z,55.57
2018-01-30T10:04:32.979Z,61.07
2018-01-30T10:07:02.735Z,61.37
2018-01-30T10:09:32.548Z,49.67
2018-01-30T10:12:02.382Z,50.10
2018-01-30T10:14:32.125Z,47.63
2018-01-30T10:17:01.909Z,50.63
2018-01-30T10:19:31.668Z,45.10
2018-01-30T10:22:01.424Z,45.07
2018-01-30T10:24:31.117Z,42.60
2018-01-30T10:27:00.848Z,37.27
2018-01-30T10:29:30.657Z,20.27
2018-01-30T10:32:00.458Z,15.93
2018-01-30T10:34:30.177Z,16.80
2018-01-30T10:36:59.878Z,20.77
2018-01-30T10:39:29.676Z,19.47
2018-01-30T10:41:59.480Z,21.40
2018-01-30T10:44:29.187Z,22.57
2018-01-30T10:46:59.950Z,23.23
2018-01-30T10:49:29.721Z,23.33
2018-01-30T10:51:59.539Z,22.13
2018-01-30T10:54:29.322Z,20.30
2018-01-30T10:56:59.134Z,24.57
2018-01-30T10:59:28.933Z,27.97
2018-01-30T11:01:58.753Z,22.90
2018-01-30T11:04:28.506Z,21.17
2018-01-30T11:06:58.242Z,23.90
2018-01-30T11:09:28.050Z,22.03
2018-01-30T11:11:57.828Z,20.57
2018-01-30T11:14:27.634Z,24.50
2018-01-30T11:16:57.463Z,25.47
2018-01-30T11:19:27.243Z,26.63
2018-01-30T11:21:56.983Z,27.67
2018-01-30T11:24:26.785Z,30.03
2018-01-30T11:26:56.544Z,30.90
2018-01-30T11:29:26.390Z,24.80
2018-01-30T11:31:56.610Z,18.63
2018-01-30T11:34:26.359Z,17.03
2018-01-30T11:36:56.230Z,13.87
2018-01-30T11:39:28.223Z,9.73
2018-01-30T11:41:59.811Z,9.67
2018-01-30T11:44:29.580Z,10.43
2018-01-30T11:47:07.760Z,6.10
2018-01-30T11:49:38.402Z,5.90
2018-01-30T11:52:10.792Z,4.57
2018-01-30T11:54:40.576Z,5.13
2018-01-30T11:57:10.498Z,4.40
2018-01-30T11:59:40.652Z,4.20
2018-01-30T12:02:13.503Z,4.77
2018-01-30T12:04:43.308Z,5.23
2018-01-30T12:07:13.086Z,5.03
2018-01-30T12:09:42.868Z,4.80
2018-01-30T12:12:12.631Z,6.80
2018-01-30T12:14:42.519Z,5.30
2018-01-30T12:17:12.361Z,3.83
2018-01-30T12:19:42.109Z,3.70
2018-01-30T12:22:11.908Z,1.90
2018-01-30T12:24:41.591Z,3.50
2018-01-30T12:27:11.315Z,2.77
2018-01-30T12:29:41.095Z,2.90
2018-01-30T12:32:10.812Z,2.30
2018-01-30T12:34:40.556Z,1.10
2018-01-30T12:37:10.383Z,1.80
2018-01-30T12:39:40.168Z,1.30
2018-01-30T12:42:09.938Z,1.90
2018-01-30T12:44:39.667Z,1.33
2018-01-30T12:47:09.382Z,1.50
2018-01-30T12:49:39.212Z,1.60
2018-01-30T12:52:08.952Z,1.87
2018-01-30T12:54:38.693Z,2.00
2018-01-30T12:57:08.469Z,2.17
2018-01-30T12:59:38.281Z,2.20
2018-01-30T13:02:08.047Z,1.73
2018-01-30T13:04:37.756Z,2.80
2018-01-30T13:07:07.473Z,2.53
2018-01-30T13:09:37.295Z,2.27
2018-01-30T13:12:07.062Z,2.47
2018-01-30T13:14:36.913Z,2.67
2018-01-30T13:17:06.643Z,2.57
2018-01-30T13:19:36.404Z,2.63
2018-01-30T13:22:06.212Z,2.80
2018-01-30T13:24:35.950Z,2.60
2018-01-30T13:27:05.685Z,3.00
2018-01-30T13:29:35.442Z,2.77
2018-01-30T13:32:05.209Z,2.43
2018-01-30T13:34:35.126Z,3.10
2018-01-30T13:37:04.842Z,3.33
2018-01-30T13:39:34.653Z,4.87
2018-01-30T13:42:04.425Z,4.60
2018-01-30T13:44:34.137Z,4.87
2018-01-30T13:47:03.886Z,4.67
2018-01-30T13:49:33.659Z,5.07
2018-01-30T13:52:03.424Z,4.40
2018-01-30T13:54:33.270Z,4.10
2018-01-30T13:57:03.058Z,4.57
2018-01-30T13:59:32.802Z,5.03
2018-01-30T14:02:02.565Z,4.47
2018-01-30T14:04:32.345Z,5.33
2018-01-30T14:07:02.125Z,4.60
2018-01-30T14:09:31.791Z,4.30
2018-01-30T14:12:01.561Z,3.63
2018-01-30T14:14:31.310Z,5.00
2018-01-30T14:17:01.129Z,3.93
2018-01-30T14:19:30.984Z,4.40
2018-01-30T14:22:00.826Z,5.33
2018-01-30T14:24:30.606Z,6.20
2018-01-30T14:27:00.293Z,5.60
2018-01-30T14:29:30.012Z,5.63
2018-01-30T14:31:59.815Z,5.13
2018-01-30T14:34:29.557Z,5.77
2018-01-30T14:36:59.312Z,4.13
2018-01-30T14:39:29.064Z,5.70
2018-01-30T14:41:58.817Z,6.43
2018-01-30T14:44:28.567Z,5.90
2018-01-30T14:46:58.310Z,4.57
2018-01-30T14:49:28.079Z,4.97
2018-01-30T14:51:57.855Z,6.13
2018-01-30T14:54:27.621Z,6.67
2018-01-30T14:56:57.443Z,7.03
2018-01-30T14:59:27.246Z,8.00
2018-01-30T15:01:57.072Z,6.97
2018-01-30T15:04:26.826Z,6.20
2018-01-30T15:06:56.536Z,7.73
2018-01-30T15:09:26.364Z,7.70
2018-01-30T15:11:56.118Z,8.83
2018-01-30T15:14:26.004Z,8.73
2018-01-30T15:16:55.776Z,6.67
2018-01-30T15:19:25.501Z,6.67
2018-01-30T15:21:55.235Z,6.13
2018-01-30T15:24:24.928Z,4.50
2018-01-30T15:26:54.665Z,4.70
2018-01-30T15:29:24.428Z,5.33
2018-01-30T15:31:54.229Z,7.90
2018-01-30T15:34:23.982Z,7.27
2018-01-30T15:36:53.718Z,4.73
2018-01-30T15:39:23.528Z,5.70
2018-01-30T15:41:53.333Z,4.83
2018-01-30T15:44:23.033Z,3.93
2018-01-30T15:46:52.736Z,4.33
2018-01-30T15:49:22.497Z,4.93
2018-01-30T15:51:52.247Z,4.77
2018-01-30T15:54:21.995Z,6.10
2018-01-30T15:56:51.815Z,5.40
2018-01-30T15:59:21.611Z,6.50
2018-01-30T16:01:51.459Z,4.43
2018-01-30T16:04:21.173Z,5.53
2018-01-30T16:06:50.862Z,4.73
2018-01-30T16:09:20.646Z,5.10
2018-01-30T16:11:50.418Z,4.17
2018-01-30T16:14:20.291Z,5.00
2018-01-30T16:16:50.041Z,4.00
2018-01-30T16:19:19.813Z,5.73
2018-01-30T16:21:49.578Z,5.43
2018-01-30T16:24:19.310Z,5.40
2018-01-30T16:26:49.060Z,5.03
2018-01-30T16:29:18.813Z,4.10
2018-01-30T16:31:48.561Z,5.37
2018-01-30T16:34:18.365Z,5.47
2018-01-30T16:36:48.113Z,4.50
2018-01-30T16:39:17.896Z,5.10
2018-01-30T16:41:47.622Z,5.37
2018-01-30T16:44:17.311Z,6.00
2018-01-30T16:46:47.061Z,5.03
2018-01-30T16:49:16.874Z,6.30
2018-01-30T16:51:46.646Z,3.83
2018-01-30T16:54:16.413Z,4.47
2018-01-30T16:56:46.123Z,4.70
2018-01-30T16:59:15.866Z,6.10
2018-01-30T17:01:45.652Z,5.27
2018-01-30T17:04:15.375Z,5.63
2018-01-30T17:06:45.112Z,4.93
2018-01-30T17:09:14.840Z,5.63
2018-01-30T17:11:44.601Z,6.13
2018-01-30T17:14:14.355Z,7.07
2018-01-30T17:16:44.153Z,4.93
2018-01-30T17:19:13.923Z,6.03
2018-01-30T17:21:43.658Z,6.30
2018-01-30T17:24:13.429Z,6.23
2018-01-30T17:26:43.148Z,7.80
2018-01-30T17:29:13.327Z,8.00
2018-01-30T17:31:43.682Z,5.90
2018-01-30T17:34:14.336Z,7.40
2018-01-30T17:36:44.743Z,6.30
2018-01-30T17:39:14.574Z,5.70
2018-01-30T17:41:45.386Z,6.63
2018-01-30T17:44:15.811Z,6.97
2018-01-30T17:46:46.168Z,6.40
2018-01-30T17:49:16.539Z,7.70
2018-01-30T17:51:46.676Z,5.20
2018-01-30T17:54:16.718Z,9.80
2018-01-30T17:56:47.035Z,6.23
2018-01-30T17:59:17.615Z,8.13
2018-01-30T18:01:47.954Z,8.00
2018-01-30T18:04:19.622Z,7.10
2018-01-30T18:06:49.997Z,10.07
2018-01-30T18:09:20.217Z,9.60
2018-01-30T18:11:50.425Z,8.20
2018-01-30T18:14:20.842Z,11.67
2018-01-30T18:16:50.983Z,11.13
2018-01-30T18:19:21.297Z,12.20
2018-01-30T18:21:51.085Z,10.80
2018-01-30T18:24:20.785Z,11.13
2018-01-30T18:26:50.524Z,10.97
2018-01-30T18:29:20.258Z,7.23
2018-01-30T18:31:50.012Z,10.33
2018-01-30T18:34:19.814Z,7.73
2018-01-30T18:36:49.530Z,9.27
2018-01-30T18:39:19.316Z,11.00
2018-01-30T18:41:49.109Z,8.97
2018-01-30T18:44:18.829Z,11.87
2018-01-30T18:46:48.590Z,12.47
2018-01-30T18:49:18.471Z,9.93
2018-01-30T18:51:48.234Z,10.77
2018-01-30T18:54:18.058Z,8.67
2018-01-30T18:56:48.042Z,10.67
2018-01-30T18:59:17.811Z,7.57
2018-01-30T19:01:47.626Z,8.30
2018-01-30T19:04:17.373Z,8.00
2018-01-30T19:06:47.123Z,10.33
2018-01-30T19:09:16.859Z,11.47
2018-01-30T19:11:46.737Z,11.27
2018-01-30T19:14:16.491Z,12.53
2018-01-30T19:16:46.658Z,12.27
2018-01-30T19:19:16.382Z,9.80
2018-01-30T19:21:46.141Z,12.37
2018-01-30T19:24:15.899Z,11.97
2018-01-30T19:26:45.623Z,12.87
2018-01-30T19:29:15.397Z,13.10
2018-01-30T19:31:45.254Z,13.60
2018-01-30T19:34:15.052Z,14.07
2018-01-30T19:36:44.789Z,13.67
2018-01-30T19:39:14.568Z,11.93
2018-01-30T19:41:44.336Z,10.47
2018-01-30T19:44:14.023Z,9.97
2018-01-30T19:46:43.847Z,9.23
2018-01-30T19:49:13.715Z,11.50
2018-01-30T19:51:43.479Z,9.73
2018-01-30T19:54:13.356Z,13.73
2018-01-30T19:56:43.122Z,14.27
2018-01-30T19:59:12.906Z,15.30
2018-01-30T20:01:42.680Z,15.40
2018-01-30T20:04:12.387Z,15.10
2018-01-30T20:06:42.176Z,15.87
2018-01-30T20:09:11.901Z,16.00
2018-01-30T20:11:41.719Z,15.90
2018-01-30T20:14:11.440Z,15.63
2018-01-30T20:16:41.209Z,15.13
2018-01-30T20:19:11.031Z,16.53
2018-01-30T20:21:40.786Z,11.00
2018-01-30T20:24:10.502Z,10.43
2018-01-30T20:26:45.607Z,8.53
2018-01-30T20:29:15.355Z,9.50
2018-01-30T20:31:45.290Z,8.27
2018-01-30T20:34:15.102Z,10.50
2018-01-30T20:36:44.827Z,10.40
2018-01-30T20:39:14.637Z,8.57
2018-01-30T20:41:44.401Z,9.37
2018-01-30T20:44:14.115Z,9.37
2018-01-30T20:46:43.904Z,9.63
2018-01-30T20:49:13.668Z,8.80
2018-01-30T20:51:43.463Z,9.17
2018-01-30T20:54:13.251Z,10.17
2018-01-30T20:56:43.145Z,8.13
2018-01-30T20:59:12.913Z,8.50
2018-01-30T21:01:42.690Z,12.93
2018-01-30T21:04:12.459Z,8.13
2018-01-30T21:06:42.162Z,10.60
2018-01-30T21:09:11.965Z,10.67
2018-01-30T21:11:41.741Z,8.60
2018-01-30T21:14:11.470Z,7.00
2018-01-30T21:16:41.220Z,7.13
2018-01-30T21:19:10.935Z,8.07
2018-01-30T21:21:40.663Z,10.20
2018-01-30T21:24:10.482Z,8.83
2018-01-30T21:26:40.165Z,8.63
2018-01-30T21:29:09.899Z,5.67
2018-01-30T21:31:39.710Z,8.33
2018-01-30T21:34:09.477Z,10.27
2018-01-30T21:36:39.226Z,7.83
2018-01-30T21:39:08.925Z,9.60
2018-01-30T21:41:38.615Z,8.23
2018-01-30T21:44:08.364Z,7.30
2018-01-30T21:46:39.363Z,7.43
2018-01-30T21:49:09.458Z,7.47
2018-01-30T21:51:39.738Z,8.33
2018-01-30T21:54:10.073Z,9.53
2018-01-30T21:56:39.908Z,9.00
2018-01-30T21:59:10.387Z,8.23
2018-01-30T22:01:40.928Z,8.17
2018-01-30T22:04:11.265Z,9.13
2018-01-30T22:06:41.403Z,9.27
2018-01-30T22:09:12.063Z,10.20
2018-01-30T22:11:43.120Z,8.17
2018-01-30T22:14:13.417Z,7.57
2018-01-30T22:16:43.744Z,6.20
2018-01-30T22:19:13.929Z,8.93
2018-01-30T22:21:44.385Z,7.63
2018-01-30T22:24:14.851Z,7.47
2018-01-30T22:26:45.362Z,6.33
2018-01-30T22:29:15.767Z,7.77
2018-01-30T22:31:46.118Z,6.53
2018-01-30T22:34:16.396Z,7.10
2018-01-30T22:36:46.713Z,6.07
2018-01-30T22:39:17.164Z,7.87
2018-01-30T22:41:47.546Z,9.13
2018-01-30T22:44:29.864Z,7.00
2018-01-30T22:46:47.897Z,9.83
